createdAt,value
2022-11-15T00:01:20.591Z,10.49
2022-11-15T00:04:07.399Z,10.53
2022-11-15T00:06:54.269Z,10.57
2022-11-15T00:09:45.949Z,10.61
2022-11-15T00:12:33.325Z,10.65
2022-11-15T00:15:20.187Z,10.67
2022-11-15T00:18:13.862Z,10.71
2022-11-15T00:21:06.915Z,10.75
2022-11-15T00:23:53.637Z,10.80
2022-11-15T00:26:40.643Z,10.84
2022-11-15T00:29:27.722Z,10.87
2022-11-15T00:32:14.601Z,10.89
2022-11-15T00:35:02.899Z,10.93
2022-11-15T00:37:50.328Z,10.96
2022-11-15T00:40:37.120Z,11.00
2022-11-15T00:43:23.768Z,11.03
2022-11-15T00:46:10.840Z,11.06
2022-11-15T00:48:57.729Z,11.09
2022-11-15T00:51:45.919Z,11.11
2022-11-15T00:54:32.881Z,11.14
2022-11-15T00:57:19.999Z,11.18
2022-11-15T01:00:08.511Z,11.20
2022-11-15T01:02:55.313Z,11.23
2022-11-15T01:05:43.046Z,11.27
2022-11-15T01:08:31.281Z,11.29
2022-11-15T01:11:18.202Z,11.31
2022-11-15T01:14:05.041Z,11.33
2022-11-15T01:16:52.082Z,11.34
2022-11-15T01:19:38.960Z,11.37
2022-11-15T01:22:25.686Z,11.39
2022-11-15T01:25:14.054Z,11.41
2022-11-15T01:28:00.850Z,11.42
2022-11-15T01:30:47.764Z,11.44
2022-11-15T01:33:36.958Z,11.45
2022-11-15T01:36:24.621Z,11.48
2022-11-15T01:39:11.337Z,11.50
2022-11-15T01:41:59.765Z,11.53
2022-11-15T01:44:49.882Z,11.54
2022-11-15T01:47:41.813Z,11.55
2022-11-15T01:50:33.198Z,11.56
2022-11-15T01:53:23.582Z,11.59
2022-11-15T01:56:12.869Z,11.59
2022-11-15T01:59:06.462Z,11.60
2022-11-15T02:01:53.525Z,11.62
2022-11-15T02:04:42.620Z,11.63
2022-11-15T02:07:31.747Z,11.63
2022-11-15T02:10:21.597Z,11.64
2022-11-15T02:13:08.732Z,11.67
2022-11-15T02:16:07.373Z,11.69
2022-11-15T02:19:01.787Z,11.71
2022-11-15T02:22:02.539Z,11.72
2022-11-15T02:25:25.147Z,11.75
2022-11-15T02:28:33.293Z,11.75
2022-11-15T02:31:28.327Z,11.77
2022-11-15T02:34:25.363Z,11.78
2022-11-15T02:37:18.817Z,11.80
2022-11-15T02:40:13.509Z,11.83
2022-11-15T02:43:24.507Z,11.84
2022-11-15T02:46:18.074Z,11.85
2022-11-15T02:49:06.918Z,11.87
2022-11-15T02:51:56.786Z,11.88
2022-11-15T02:54:43.540Z,11.89
2022-11-15T02:57:44.251Z,11.92
2022-11-15T03:00:36.898Z,11.94
2022-11-15T03:03:50.892Z,11.94
2022-11-15T03:06:44.263Z,11.96
2022-11-15T03:09:37.137Z,11.97
2022-11-15T03:12:29.916Z,11.97
2022-11-15T03:15:23.431Z,11.99
2022-11-15T03:18:18.248Z,12.00
2022-11-15T03:21:08.365Z,12.01
2022-11-15T03:24:00.353Z,12.03
2022-11-15T03:26:49.159Z,12.03
2022-11-15T03:29:40.909Z,12.04
2022-11-15T03:32:31.454Z,12.05
2022-11-15T03:35:22.258Z,12.06
2022-11-15T03:38:17.711Z,12.08
2022-11-15T03:41:13.245Z,12.07
2022-11-15T03:44:10.358Z,12.07
2022-11-15T03:47:04.909Z,12.08
2022-11-15T03:49:57.673Z,12.08
2022-11-15T03:52:46.698Z,12.10
2022-11-15T03:55:34.853Z,12.12
2022-11-15T03:58:23.251Z,12.11
2022-11-15T04:01:10.402Z,12.12
2022-11-15T04:03:57.415Z,12.14
2022-11-15T04:06:44.096Z,12.14
2022-11-15T04:09:33.837Z,12.14
2022-11-15T04:12:31.515Z,12.15
2022-11-15T04:15:21.408Z,12.15
2022-11-15T04:18:08.552Z,12.16
2022-11-15T04:21:12.713Z,12.18
2022-11-15T04:24:14.653Z,12.18
2022-11-15T04:27:01.830Z,12.18
2022-11-15T04:29:48.989Z,12.20
2022-11-15T04:32:37.239Z,12.20
2022-11-15T04:35:24.250Z,12.20
2022-11-15T04:38:12.740Z,12.21
2022-11-15T04:40:59.604Z,12.19
2022-11-15T04:43:46.268Z,12.19
2022-11-15T04:46:34.478Z,12.19
2022-11-15T04:49:22.879Z,12.17
2022-11-15T04:52:09.770Z,12.16
2022-11-15T04:54:56.680Z,12.15
2022-11-15T04:57:43.643Z,12.15
2022-11-15T05:00:31.659Z,12.14
2022-11-15T05:03:47.595Z,12.12
2022-11-15T05:06:35.741Z,12.10
2022-11-15T05:09:22.903Z,12.08
2022-11-15T05:12:09.496Z,12.07
2022-11-15T05:14:56.450Z,12.05
2022-11-15T05:17:43.712Z,12.03
2022-11-15T05:20:30.622Z,12.03
2022-11-15T05:23:19.063Z,12.02
2022-11-15T05:26:09.321Z,12.00
2022-11-15T05:28:57.498Z,12.00
2022-11-15T05:31:44.507Z,11.99
2022-11-15T05:34:31.495Z,12.00
2022-11-15T05:37:19.693Z,12.00
2022-11-15T05:40:09.132Z,12.00
2022-11-15T05:42:56.031Z,11.99
2022-11-15T05:45:42.734Z,12.00
2022-11-15T05:48:29.897Z,12.00
2022-11-15T05:51:19.284Z,11.99
2022-11-15T05:54:06.507Z,12.01
2022-11-15T05:56:56.687Z,12.01
2022-11-15T05:59:45.067Z,12.02
2022-11-15T06:02:31.869Z,12.02
2022-11-15T06:05:18.691Z,12.03
2022-11-15T06:08:05.896Z,12.03
2022-11-15T06:10:52.675Z,12.05
2022-11-15T06:13:40.665Z,12.06
2022-11-15T06:16:27.443Z,12.07
2022-11-15T06:19:14.472Z,12.09
2022-11-15T06:22:01.539Z,12.10
2022-11-15T06:24:48.301Z,12.12
2022-11-15T06:27:35.328Z,12.13
2022-11-15T06:30:24.100Z,12.14
2022-11-15T06:33:10.900Z,12.13
2022-11-15T06:35:57.878Z,12.14
2022-11-15T06:38:45.049Z,12.15
2022-11-15T06:41:31.745Z,12.15
2022-11-15T06:44:18.473Z,12.15
2022-11-15T06:47:07.028Z,12.15
2022-11-15T06:49:54.145Z,12.15
2022-11-15T06:52:41.090Z,12.14
2022-11-15T06:55:28.177Z,12.15
2022-11-15T06:58:15.376Z,12.14
2022-11-15T07:01:02.519Z,12.14
2022-11-15T07:03:50.930Z,12.14
2022-11-15T07:06:38.081Z,12.15
2022-11-15T07:09:25.124Z,12.14
2022-11-15T07:12:12.003Z,12.14
2022-11-15T07:14:58.949Z,12.15
2022-11-15T07:17:45.937Z,12.15
2022-11-15T07:20:34.085Z,12.14
2022-11-15T07:23:21.031Z,12.15
2022-11-15T07:26:08.587Z,12.14
2022-11-15T07:28:55.590Z,12.15
2022-11-15T07:31:42.453Z,12.15
2022-11-15T07:34:29.451Z,12.13
2022-11-15T07:37:26.757Z,12.12
2022-11-15T07:40:19.751Z,12.11
2022-11-15T07:43:09.805Z,12.10
2022-11-15T07:45:59.997Z,12.09
2022-11-15T07:48:48.860Z,12.10
2022-11-15T07:51:35.536Z,12.11
2022-11-15T07:54:24.002Z,12.12
2022-11-15T07:57:15.358Z,12.13
2022-11-15T08:00:07.804Z,12.13
2022-11-15T08:03:22.667Z,12.15
2022-11-15T08:06:26.129Z,12.15
2022-11-15T08:09:13.116Z,12.16
2022-11-15T08:12:01.635Z,12.19
2022-11-15T08:14:48.678Z,12.20
2022-11-15T08:17:43.746Z,12.22
2022-11-15T08:20:33.741Z,12.21
2022-11-15T08:23:26.584Z,12.21
2022-11-15T08:26:13.912Z,12.21
2022-11-15T08:29:02.280Z,12.21
2022-11-15T08:31:52.348Z,12.21
2022-11-15T08:34:39.455Z,12.20
2022-11-15T08:37:26.218Z,12.20
2022-11-15T08:40:14.700Z,12.21
2022-11-15T08:43:03.485Z,12.22
2022-11-15T08:45:51.459Z,12.22
2022-11-15T08:48:40.784Z,12.24
2022-11-15T08:51:27.410Z,12.23
2022-11-15T08:54:16.748Z,12.23
2022-11-15T08:57:03.901Z,12.23
2022-11-15T08:59:50.920Z,12.22
2022-11-15T09:02:39.673Z,12.24
2022-11-15T09:05:26.343Z,12.24
2022-11-15T09:08:32.426Z,12.24
2022-11-15T09:11:24.393Z,12.24
2022-11-15T09:14:13.120Z,12.24
2022-11-15T09:17:00.443Z,12.23
2022-11-15T09:19:48.412Z,12.23
2022-11-15T09:22:39.624Z,12.25
2022-11-15T09:25:26.649Z,12.27
2022-11-15T09:28:13.793Z,12.27
2022-11-15T09:31:03.488Z,12.32
2022-11-15T09:33:50.159Z,12.34
2022-11-15T09:36:38.421Z,12.36
2022-11-15T09:39:25.471Z,12.38
2022-11-15T09:42:31.726Z,12.41
2022-11-15T09:45:25.160Z,12.43
2022-11-15T09:48:39.651Z,12.45
2022-11-15T09:51:34.197Z,12.46
2022-11-15T09:57:13.125Z,12.47
2022-11-15T10:00:38.727Z,12.49
2022-11-15T10:03:14.058Z,12.51
2022-11-15T10:05:45.411Z,12.52
2022-11-15T10:08:34.333Z,12.53
2022-11-15T10:11:36.630Z,12.55
2022-11-15T10:13:58.610Z,12.59
2022-11-15T10:16:50.772Z,12.61
2022-11-15T10:19:25.768Z,12.64
2022-11-15T10:22:02.381Z,12.66
2022-11-15T10:24:36.634Z,12.69
2022-11-15T10:27:11.735Z,12.69
2022-11-15T10:29:48.112Z,12.71
2022-11-15T10:32:18.914Z,12.72
2022-11-15T10:34:50.117Z,12.75
2022-11-15T10:37:31.348Z,12.79
2022-11-15T10:40:07.595Z,12.80
2022-11-15T10:42:37.288Z,12.82
2022-11-15T10:45:25.621Z,12.82
2022-11-15T10:47:55.885Z,12.86
2022-11-15T10:50:32.592Z,12.90
2022-11-15T10:53:03.768Z,12.95
2022-11-15T10:55:35.067Z,12.99
2022-11-15T10:58:08.862Z,13.02
2022-11-15T11:00:40.105Z,13.00
2022-11-15T11:03:30.188Z,13.01
2022-11-15T11:06:08.079Z,13.03
2022-11-15T11:08:36.568Z,13.03
2022-11-15T11:11:06.428Z,13.06
2022-11-15T11:13:37.736Z,13.09
2022-11-15T11:16:42.740Z,13.12
2022-11-15T11:19:24.788Z,13.15
2022-11-15T11:22:04.870Z,13.17
2022-11-15T11:24:41.700Z,13.15
2022-11-15T11:27:24.075Z,13.15
2022-11-15T11:30:05.512Z,13.17
2022-11-15T11:32:45.994Z,13.18
2022-11-15T11:35:19.782Z,13.24
2022-11-15T11:38:12.994Z,13.29
2022-11-15T11:40:46.758Z,13.31
2022-11-15T11:43:26.170Z,13.35
2022-11-15T11:46:15.111Z,13.40
2022-11-15T11:48:45.223Z,13.40
2022-11-15T11:51:19.448Z,13.40
2022-11-15T11:53:54.971Z,13.43
2022-11-15T11:56:32.729Z,13.46
2022-11-15T11:59:12.443Z,13.49
2022-11-15T12:01:45.478Z,13.47
2022-11-15T12:04:20.081Z,13.47
2022-11-15T12:06:52.741Z,13.49
2022-11-15T12:09:31.451Z,13.49
2022-11-15T12:12:07.499Z,13.49
2022-11-15T12:14:42.284Z,13.45
2022-11-15T12:17:15.392Z,13.43
2022-11-15T12:19:44.654Z,13.47
2022-11-15T12:22:18.998Z,13.51
2022-11-15T12:24:55.827Z,13.57
2022-11-15T12:27:33.357Z,13.63
2022-11-15T12:30:06.292Z,13.66
2022-11-15T12:32:39.271Z,13.70
2022-11-15T12:35:23.633Z,13.72
2022-11-15T12:37:55.949Z,13.73
2022-11-15T12:40:36.384Z,13.74
2022-11-15T12:43:40.713Z,13.75
2022-11-15T12:46:15.330Z,13.75
2022-11-15T12:48:55.327Z,13.78
2022-11-15T12:51:53.389Z,13.80
2022-11-15T12:55:02.921Z,13.84
2022-11-15T12:57:34.470Z,13.87
2022-11-15T13:00:05.165Z,13.90
2022-11-15T13:02:35.833Z,13.95
2022-11-15T13:06:01.994Z,14.01
2022-11-15T13:08:48.245Z,14.08
2022-11-15T13:11:51.992Z,14.13
2022-11-15T13:14:49.775Z,14.18
2022-11-15T13:17:27.872Z,14.23
2022-11-15T13:20:01.311Z,14.28
2022-11-15T13:22:53.413Z,14.33
2022-11-15T13:25:48.789Z,14.34
2022-11-15T13:28:26.495Z,14.34
2022-11-15T13:30:57.288Z,14.34
2022-11-15T13:33:35.593Z,14.34
2022-11-15T13:36:08.530Z,14.34
2022-11-15T13:38:40.019Z,14.33
2022-11-15T13:41:21.660Z,14.33
2022-11-15T13:43:51.298Z,14.33
2022-11-15T13:46:21.543Z,14.30
2022-11-15T13:48:55.619Z,14.31
2022-11-15T13:51:30.594Z,14.29
2022-11-15T13:54:03.741Z,14.28
2022-11-15T13:56:34.983Z,14.27
2022-11-15T13:59:10.061Z,14.27
2022-11-15T14:01:38.866Z,14.28
2022-11-15T14:04:07.525Z,14.28
2022-11-15T14:06:47.587Z,14.27
2022-11-15T14:09:39.167Z,14.28
2022-11-15T14:12:27.186Z,14.29
2022-11-15T14:14:55.628Z,14.28
2022-11-15T14:17:37.568Z,14.28
2022-11-15T14:20:21.906Z,14.26
2022-11-15T14:22:54.569Z,14.26
2022-11-15T14:25:26.218Z,14.26
2022-11-15T14:28:16.291Z,14.24
2022-11-15T14:30:48.043Z,14.21
2022-11-15T14:33:21.978Z,14.19
2022-11-15T14:35:50.752Z,14.18
2022-11-15T14:38:19.127Z,14.16
2022-11-15T14:40:48.924Z,14.15
2022-11-15T14:43:17.319Z,14.14
2022-11-15T14:45:45.669Z,14.12
2022-11-15T14:48:14.091Z,14.11
2022-11-15T14:50:42.603Z,14.09
2022-11-15T14:53:15.104Z,14.06
2022-11-15T14:55:45.969Z,14.03
2022-11-15T14:58:15.642Z,14.00
2022-11-15T15:00:44.325Z,13.99
2022-11-15T15:03:12.635Z,13.97
2022-11-15T15:05:43.114Z,13.95
2022-11-15T15:08:12.791Z,13.94
2022-11-15T15:10:43.609Z,13.91
2022-11-15T15:13:19.725Z,13.89
2022-11-15T15:15:48.962Z,13.88
2022-11-15T15:18:17.554Z,13.87
2022-11-15T15:20:47.514Z,13.86
2022-11-15T15:23:18.530Z,13.83
2022-11-15T15:25:48.775Z,13.82
2022-11-15T15:28:17.461Z,13.80
2022-11-15T15:30:47.135Z,13.78
2022-11-15T15:33:15.460Z,13.77
2022-11-15T15:35:44.333Z,13.74
2022-11-15T15:38:13.518Z,13.73
2022-11-15T15:40:41.851Z,13.71
2022-11-15T15:43:10.259Z,13.69
2022-11-15T15:45:40.199Z,13.68
2022-11-15T15:48:13.635Z,13.65
2022-11-15T15:50:43.752Z,13.64
2022-11-15T15:53:14.173Z,13.62
2022-11-15T15:55:42.854Z,13.61
2022-11-15T15:58:11.257Z,13.58
2022-11-15T16:00:39.893Z,13.57
2022-11-15T16:03:08.215Z,13.55
2022-11-15T16:05:37.889Z,13.53
2022-11-15T16:08:06.552Z,13.53
2022-11-15T16:10:35.846Z,13.51
2022-11-15T16:13:04.954Z,13.48
2022-11-15T16:15:33.938Z,13.45
2022-11-15T16:18:03.177Z,13.45
2022-11-15T16:20:35.271Z,13.43
2022-11-15T16:23:09.083Z,13.40
2022-11-15T16:25:42.426Z,13.38
2022-11-15T16:28:19.050Z,13.36
2022-11-15T16:30:51.142Z,13.33
2022-11-15T16:33:23.900Z,13.32
2022-11-15T16:35:52.320Z,13.30
2022-11-15T16:38:22.331Z,13.30
2022-11-15T16:40:50.782Z,13.29
2022-11-15T16:43:19.125Z,13.28
2022-11-15T16:45:47.868Z,13.28
2022-11-15T16:48:25.117Z,13.29
2022-11-15T16:50:56.916Z,13.29
2022-11-15T16:53:27.457Z,13.29
2022-11-15T16:55:56.787Z,13.29
2022-11-15T16:58:25.682Z,13.29
2022-11-15T17:00:55.183Z,13.29
2022-11-15T17:03:24.336Z,13.29
2022-11-15T17:05:53.098Z,13.28
2022-11-15T17:08:22.601Z,13.31
2022-11-15T17:10:52.529Z,13.31
2022-11-15T17:13:20.975Z,13.31
2022-11-15T17:15:49.333Z,13.32
2022-11-15T17:18:17.702Z,13.33
2022-11-15T17:20:45.983Z,13.33
2022-11-15T17:23:15.313Z,13.33
2022-11-15T17:25:43.772Z,13.35
2022-11-15T17:28:13.466Z,13.35
2022-11-15T17:30:43.138Z,13.36
2022-11-15T17:33:11.645Z,13.37
2022-11-15T17:35:39.969Z,13.38
2022-11-15T17:38:08.313Z,13.38
2022-11-15T17:40:36.624Z,13.38
2022-11-15T17:43:06.765Z,13.40
2022-11-15T17:45:37.510Z,13.42
2022-11-15T17:48:06.072Z,13.41
2022-11-15T17:50:34.380Z,13.41
2022-11-15T17:53:02.686Z,13.44
2022-11-15T17:55:31.065Z,13.43
2022-11-15T17:57:59.430Z,13.43
2022-11-15T18:00:27.750Z,13.43
2022-11-15T18:02:59.255Z,13.44
2022-11-15T18:05:27.549Z,13.43
2022-11-15T18:07:55.922Z,13.43
2022-11-15T18:10:24.277Z,13.41
2022-11-15T18:12:52.646Z,13.41
2022-11-15T18:15:21.484Z,13.39
2022-11-15T18:17:49.814Z,13.39
2022-11-15T18:20:19.565Z,13.38
2022-11-15T18:22:48.166Z,13.38
2022-11-15T18:25:16.468Z,13.37
2022-11-15T18:27:45.026Z,13.36
2022-11-15T18:30:13.949Z,13.34
2022-11-15T18:32:42.933Z,13.35
2022-11-15T18:35:11.338Z,13.34
2022-11-15T18:37:41.062Z,13.31
2022-11-15T18:40:10.763Z,13.29
2022-11-15T18:42:39.146Z,13.28
2022-11-15T18:45:08.617Z,13.25
2022-11-15T18:47:37.613Z,13.23
2022-11-15T18:50:06.530Z,13.21
2022-11-15T18:52:34.833Z,13.18
2022-11-15T18:55:04.909Z,13.15
2022-11-15T18:57:33.445Z,13.13
2022-11-15T19:00:01.798Z,13.12
2022-11-15T19:02:30.185Z,13.09
2022-11-15T19:04:58.527Z,13.06
2022-11-15T19:07:26.892Z,13.06
2022-11-15T19:09:56.098Z,13.04
2022-11-15T19:12:25.772Z,13.01
2022-11-15T19:14:54.101Z,12.99
2022-11-15T19:17:22.446Z,12.98
2022-11-15T19:19:50.716Z,12.96
2022-11-15T19:22:19.065Z,12.94
2022-11-15T19:24:47.361Z,12.93
2022-11-15T19:27:15.737Z,12.91
2022-11-15T19:29:45.417Z,12.89
2022-11-15T19:32:13.713Z,12.86
2022-11-15T19:34:42.018Z,12.85
2022-11-15T19:37:10.325Z,12.82
2022-11-15T19:39:41.283Z,12.81
2022-11-15T19:42:09.801Z,12.79
2022-11-15T19:44:38.164Z,12.76
2022-11-15T19:47:09.305Z,12.74
2022-11-15T19:49:37.975Z,12.72
2022-11-15T19:52:06.719Z,12.72
2022-11-15T19:54:35.105Z,12.71
2022-11-15T19:57:03.489Z,12.69
2022-11-15T19:59:31.833Z,12.68
2022-11-15T20:02:00.177Z,12.67
2022-11-15T20:04:29.893Z,12.67
2022-11-15T20:06:58.247Z,12.66
2022-11-15T20:09:26.796Z,12.65
2022-11-15T20:11:55.118Z,12.64
2022-11-15T20:14:24.077Z,12.64
2022-11-15T20:16:54.423Z,12.64
2022-11-15T20:19:23.173Z,12.63
2022-11-15T20:21:52.882Z,12.62
2022-11-15T20:24:21.167Z,12.62
2022-11-15T20:26:49.578Z,12.61
2022-11-15T20:29:17.977Z,12.61
2022-11-15T20:31:46.304Z,12.60
2022-11-15T20:34:14.696Z,12.60
2022-11-15T20:36:43.242Z,12.59
2022-11-15T20:39:12.934Z,12.58
2022-11-15T20:41:41.261Z,12.56
2022-11-15T20:44:09.837Z,12.55
2022-11-15T20:46:38.190Z,12.54
2022-11-15T20:49:07.070Z,12.53
2022-11-15T20:51:35.512Z,12.52
2022-11-15T20:54:04.059Z,12.50
2022-11-15T20:56:33.718Z,12.49
2022-11-15T20:59:02.061Z,12.49
2022-11-15T21:01:31.754Z,12.49
2022-11-15T21:04:00.647Z,12.48
2022-11-15T21:06:28.957Z,12.47
2022-11-15T21:09:15.070Z,12.47
2022-11-15T21:12:02.379Z,12.46
2022-11-15T21:14:31.127Z,12.45
2022-11-15T21:16:59.504Z,12.44
2022-11-15T21:19:32.674Z,12.44
2022-11-15T21:22:04.812Z,12.43
2022-11-15T21:24:33.205Z,12.43
2022-11-15T21:27:02.854Z,12.42
2022-11-15T21:29:37.375Z,12.41
2022-11-15T21:32:07.377Z,12.41
2022-11-15T21:34:36.028Z,12.40
2022-11-15T21:37:04.447Z,12.39
2022-11-15T21:39:32.881Z,12.39
2022-11-15T21:42:02.564Z,12.39
2022-11-15T21:44:31.053Z,12.36
2022-11-15T21:47:00.155Z,12.36
2022-11-15T21:49:28.477Z,12.34
2022-11-15T21:51:56.769Z,12.34
2022-11-15T21:54:25.052Z,12.33
2022-11-15T21:56:53.416Z,12.32
2022-11-15T21:59:23.143Z,12.32
2022-11-15T22:02:08.798Z,12.30
2022-11-15T22:04:37.129Z,12.28
2022-11-15T22:07:05.480Z,12.28
2022-11-15T22:09:33.821Z,12.28
2022-11-15T22:12:02.230Z,12.27
2022-11-15T22:14:31.890Z,12.26
2022-11-15T22:17:00.359Z,12.25
2022-11-15T22:19:28.851Z,12.24
2022-11-15T22:21:57.341Z,12.23
2022-11-15T22:24:26.031Z,12.23
2022-11-15T22:26:54.504Z,12.23
2022-11-15T22:29:23.050Z,12.22
2022-11-15T22:31:52.933Z,12.21
2022-11-15T22:34:21.417Z,12.20
2022-11-15T22:37:13.551Z,12.20
2022-11-15T22:39:38.331Z,12.20
2022-11-15T22:42:06.892Z,12.20
2022-11-15T22:44:35.403Z,12.20
2022-11-15T22:47:05.307Z,12.20
2022-11-15T22:49:33.812Z,12.20
2022-11-15T22:52:02.285Z,12.21
2022-11-15T22:54:30.762Z,12.21
2022-11-15T22:56:59.288Z,12.21
2022-11-15T22:59:27.877Z,12.20
2022-11-15T23:01:56.389Z,12.20
2022-11-15T23:04:26.275Z,12.19
2022-11-15T23:06:54.870Z,12.19
2022-11-15T23:09:23.524Z,12.19
2022-11-15T23:12:09.327Z,12.20
2022-11-15T23:14:37.857Z,12.18
2022-11-15T23:17:06.367Z,12.19
2022-11-15T23:19:36.289Z,12.18
2022-11-15T23:22:22.017Z,12.17
2022-11-15T23:24:51.656Z,12.17
2022-11-15T23:27:20.782Z,12.16
2022-11-15T23:30:07.078Z,12.16
2022-11-15T23:33:01.497Z,12.15
2022-11-15T23:35:31.368Z,12.15
2022-11-15T23:37:59.816Z,12.15
2022-11-15T23:40:28.354Z,12.15
2022-11-15T23:42:59.070Z,12.16
2022-11-15T23:45:27.583Z,12.16
2022-11-15T23:48:01.120Z,12.16
2022-11-15T23:50:32.635Z,12.17
2022-11-15T23:53:01.148Z,12.17
2022-11-15T23:55:29.605Z,12.16
2022-11-15T23:57:58.359Z,12.17
